sensor_id;sensor_type;location;lat;lon;timestamp;P1;durP1;ratioP1;P2;durP2;ratioP2
59109;SDS011;44895;47.438;18.978;2023-06-26T00:00:49;11.57;;;6.07;;
59109;SDS011;44895;47.438;18.978;2023-06-26T00:03:53;9.80;;;6.15;;
59109;SDS011;44895;47.438;18.978;2023-06-26T00:06:57;9.65;;;6.28;;
59109;SDS011;44895;47.438;18.978;2023-06-26T00:10:03;11.00;;;7.03;;
59109;SDS011;44895;47.438;18.978;2023-06-26T00:13:07;10.70;;;7.10;;
59109;SDS011;44895;47.438;18.978;2023-06-26T00:16:11;12.05;;;7.03;;
59109;SDS011;44895;47.438;18.978;2023-06-26T00:19:15;11.27;;;7.47;;
59109;SDS011;44895;47.438;18.978;2023-06-26T00:22:20;9.95;;;6.80;;
59109;SDS011;44895;47.438;18.978;2023-06-26T00:25:25;12.02;;;7.38;;
59109;SDS011;44895;47.438;18.978;2023-06-26T00:28:29;9.85;;;6.30;;
59109;SDS011;44895;47.438;18.978;2023-06-26T00:31:34;9.20;;;6.15;;
59109;SDS011;44895;47.438;18.978;2023-06-26T00:34:39;13.82;;;7.10;;
59109;SDS011;44895;47.438;18.978;2023-06-26T00:37:43;9.95;;;6.57;;
59109;SDS011;44895;47.438;18.978;2023-06-26T00:40:47;11.90;;;7.53;;
59109;SDS011;44895;47.438;18.978;2023-06-26T00:43:50;11.02;;;7.28;;
59109;SDS011;44895;47.438;18.978;2023-06-26T00:46:55;12.68;;;6.57;;
59109;SDS011;44895;47.438;18.978;2023-06-26T00:50:00;9.80;;;6.95;;
59109;SDS011;44895;47.438;18.978;2023-06-26T00:53:04;12.35;;;7.07;;
59109;SDS011;44895;47.438;18.978;2023-06-26T00:56:09;10.13;;;6.82;;
59109;SDS011;44895;47.438;18.978;2023-06-26T00:59:14;12.18;;;7.68;;
59109;SDS011;44895;47.438;18.978;2023-06-26T01:02:18;12.23;;;6.72;;
59109;SDS011;44895;47.438;18.978;2023-06-26T01:05:23;10.57;;;7.53;;
59109;SDS011;44895;47.438;18.978;2023-06-26T01:08:27;11.43;;;7.30;;
59109;SDS011;44895;47.438;18.978;2023-06-26T01:11:31;10.95;;;6.30;;
59109;SDS011;44895;47.438;18.978;2023-06-26T01:14:35;10.23;;;6.43;;
59109;SDS011;44895;47.438;18.978;2023-06-26T01:17:40;9.95;;;6.88;;
59109;SDS011;44895;47.438;18.978;2023-06-26T01:20:48;11.38;;;7.30;;
59109;SDS011;44895;47.438;18.978;2023-06-26T01:24:04;11.80;;;7.82;;
59109;SDS011;44895;47.438;18.978;2023-06-26T01:27:14;13.68;;;6.82;;
59109;SDS011;44895;47.438;18.978;2023-06-26T01:30:19;12.80;;;8.40;;
59109;SDS011;44895;47.438;18.978;2023-06-26T01:33:25;10.63;;;7.20;;
59109;SDS011;44895;47.438;18.978;2023-06-26T01:36:30;11.50;;;6.70;;
59109;SDS011;44895;47.438;18.978;2023-06-26T01:39:35;11.68;;;7.78;;
59109;SDS011;44895;47.438;18.978;2023-06-26T01:42:39;14.77;;;8.00;;
59109;SDS011;44895;47.438;18.978;2023-06-26T01:45:43;10.35;;;7.57;;
59109;SDS011;44895;47.438;18.978;2023-06-26T01:52:25;11.65;;;8.27;;
59109;SDS011;44895;47.438;18.978;2023-06-26T01:58:57;11.15;;;7.85;;
59109;SDS011;44895;47.438;18.978;2023-06-26T02:02:02;11.98;;;8.02;;
59109;SDS011;44895;47.438;18.978;2023-06-26T02:05:07;13.13;;;7.82;;
59109;SDS011;44895;47.438;18.978;2023-06-26T02:08:13;11.23;;;7.45;;
59109;SDS011;44895;47.438;18.978;2023-06-26T02:11:25;11.57;;;7.22;;
59109;SDS011;44895;47.438;18.978;2023-06-26T02:14:29;11.13;;;7.45;;
59109;SDS011;44895;47.438;18.978;2023-06-26T02:17:33;11.32;;;6.88;;
59109;SDS011;44895;47.438;18.978;2023-06-26T02:20:37;17.35;;;7.25;;
59109;SDS011;44895;47.438;18.978;2023-06-26T02:23:40;13.23;;;7.97;;
59109;SDS011;44895;47.438;18.978;2023-06-26T02:26:45;11.77;;;6.97;;
59109;SDS011;44895;47.438;18.978;2023-06-26T02:29:49;12.63;;;8.25;;
59109;SDS011;44895;47.438;18.978;2023-06-26T02:32:53;9.80;;;7.18;;
59109;SDS011;44895;47.438;18.978;2023-06-26T02:35:57;10.85;;;7.40;;
59109;SDS011;44895;47.438;18.978;2023-06-26T02:39:01;12.48;;;6.88;;
59109;SDS011;44895;47.438;18.978;2023-06-26T02:42:08;14.38;;;8.80;;
59109;SDS011;44895;47.438;18.978;2023-06-26T02:45:12;12.18;;;7.35;;
59109;SDS011;44895;47.438;18.978;2023-06-26T02:48:16;13.57;;;7.93;;
59109;SDS011;44895;47.438;18.978;2023-06-26T02:51:20;12.38;;;7.45;;
59109;SDS011;44895;47.438;18.978;2023-06-26T02:54:24;10.90;;;7.40;;
59109;SDS011;44895;47.438;18.978;2023-06-26T02:57:32;10.85;;;6.95;;
59109;SDS011;44895;47.438;18.978;2023-06-26T03:00:38;12.82;;;7.45;;
59109;SDS011;44895;47.438;18.978;2023-06-26T03:03:47;11.45;;;7.78;;
59109;SDS011;44895;47.438;18.978;2023-06-26T03:06:54;13.40;;;8.85;;
59109;SDS011;44895;47.438;18.978;2023-06-26T03:09:58;10.10;;;7.03;;
59109;SDS011;44895;47.438;18.978;2023-06-26T03:13:03;11.27;;;7.15;;
59109;SDS011;44895;47.438;18.978;2023-06-26T03:16:06;9.95;;;6.75;;
59109;SDS011;44895;47.438;18.978;2023-06-26T03:19:11;10.82;;;6.68;;
59109;SDS011;44895;47.438;18.978;2023-06-26T03:22:35;10.77;;;6.95;;
59109;SDS011;44895;47.438;18.978;2023-06-26T03:25:39;13.52;;;6.93;;
59109;SDS011;44895;47.438;18.978;2023-06-26T03:29:03;11.25;;;7.97;;
59109;SDS011;44895;47.438;18.978;2023-06-26T03:32:07;12.30;;;7.18;;
59109;SDS011;44895;47.438;18.978;2023-06-26T03:35:12;10.50;;;7.00;;
59109;SDS011;44895;47.438;18.978;2023-06-26T03:38:16;12.15;;;7.85;;
59109;SDS011;44895;47.438;18.978;2023-06-26T03:41:21;13.88;;;8.05;;
59109;SDS011;44895;47.438;18.978;2023-06-26T03:44:29;11.85;;;7.85;;
59109;SDS011;44895;47.438;18.978;2023-06-26T03:47:33;11.93;;;8.40;;
59109;SDS011;44895;47.438;18.978;2023-06-26T03:50:37;12.63;;;7.80;;
59109;SDS011;44895;47.438;18.978;2023-06-26T03:53:41;13.80;;;8.38;;
59109;SDS011;44895;47.438;18.978;2023-06-26T03:56:45;11.43;;;8.45;;
59109;SDS011;44895;47.438;18.978;2023-06-26T03:59:49;13.63;;;7.85;;
59109;SDS011;44895;47.438;18.978;2023-06-26T04:02:55;12.43;;;7.55;;
59109;SDS011;44895;47.438;18.978;2023-06-26T04:05:59;12.40;;;7.32;;
59109;SDS011;44895;47.438;18.978;2023-06-26T04:09:03;11.38;;;8.52;;
59109;SDS011;44895;47.438;18.978;2023-06-26T04:12:08;16.27;;;9.30;;
59109;SDS011;44895;47.438;18.978;2023-06-26T04:15:13;15.23;;;7.68;;
59109;SDS011;44895;47.438;18.978;2023-06-26T04:18:17;11.15;;;8.13;;
59109;SDS011;44895;47.438;18.978;2023-06-26T04:21:24;12.27;;;8.85;;
59109;SDS011;44895;47.438;18.978;2023-06-26T04:24:28;13.48;;;7.90;;
59109;SDS011;44895;47.438;18.978;2023-06-26T04:27:32;11.20;;;7.78;;
59109;SDS011;44895;47.438;18.978;2023-06-26T04:30:36;12.48;;;9.00;;
59109;SDS011;44895;47.438;18.978;2023-06-26T04:33:42;10.77;;;6.95;;
59109;SDS011;44895;47.438;18.978;2023-06-26T04:36:46;12.32;;;8.05;;
59109;SDS011;44895;47.438;18.978;2023-06-26T04:39:51;15.95;;;8.43;;
59109;SDS011;44895;47.438;18.978;2023-06-26T04:42:55;11.43;;;7.88;;
59109;SDS011;44895;47.438;18.978;2023-06-26T04:45:59;10.55;;;7.82;;
59109;SDS011;44895;47.438;18.978;2023-06-26T04:49:03;10.70;;;6.68;;
59109;SDS011;44895;47.438;18.978;2023-06-26T04:52:07;11.05;;;7.65;;
59109;SDS011;44895;47.438;18.978;2023-06-26T04:55:11;12.13;;;8.00;;
59109;SDS011;44895;47.438;18.978;2023-06-26T04:58:15;9.55;;;7.28;;
59109;SDS011;44895;47.438;18.978;2023-06-26T05:01:19;13.77;;;7.50;;
59109;SDS011;44895;47.438;18.978;2023-06-26T05:04:23;11.70;;;7.07;;
59109;SDS011;44895;47.438;18.978;2023-06-26T05:07:27;10.82;;;7.40;;
59109;SDS011;44895;47.438;18.978;2023-06-26T05:10:31;12.10;;;6.82;;
59109;SDS011;44895;47.438;18.978;2023-06-26T05:13:36;10.60;;;7.70;;
59109;SDS011;44895;47.438;18.978;2023-06-26T05:16:40;11.23;;;7.75;;
59109;SDS011;44895;47.438;18.978;2023-06-26T05:19:45;15.75;;;8.18;;
59109;SDS011;44895;47.438;18.978;2023-06-26T05:22:50;10.57;;;7.10;;
59109;SDS011;44895;47.438;18.978;2023-06-26T05:25:54;10.85;;;6.63;;
59109;SDS011;44895;47.438;18.978;2023-06-26T05:28:59;9.95;;;6.32;;
59109;SDS011;44895;47.438;18.978;2023-06-26T05:32:03;8.98;;;5.85;;
59109;SDS011;44895;47.438;18.978;2023-06-26T05:35:09;10.18;;;5.45;;
59109;SDS011;44895;47.438;18.978;2023-06-26T05:38:14;9.88;;;6.03;;
59109;SDS011;44895;47.438;18.978;2023-06-26T05:41:19;9.38;;;6.00;;
59109;SDS011;44895;47.438;18.978;2023-06-26T05:44:23;11.02;;;5.75;;
59109;SDS011;44895;47.438;18.978;2023-06-26T05:47:27;8.73;;;5.45;;
59109;SDS011;44895;47.438;18.978;2023-06-26T05:50:30;8.75;;;5.25;;
59109;SDS011;44895;47.438;18.978;2023-06-26T05:53:35;7.95;;;4.78;;
59109;SDS011;44895;47.438;18.978;2023-06-26T05:56:39;8.95;;;5.35;;
59109;SDS011;44895;47.438;18.978;2023-06-26T05:59:45;11.67;;;5.63;;
59109;SDS011;44895;47.438;18.978;2023-06-26T06:02:51;11.23;;;5.82;;
59109;SDS011;44895;47.438;18.978;2023-06-26T06:05:57;13.43;;;5.68;;
59109;SDS011;44895;47.438;18.978;2023-06-26T06:09:01;11.27;;;5.78;;
59109;SDS011;44895;47.438;18.978;2023-06-26T06:12:07;9.57;;;5.75;;
59109;SDS011;44895;47.438;18.978;2023-06-26T06:15:11;8.68;;;5.45;;
59109;SDS011;44895;47.438;18.978;2023-06-26T06:18:17;8.43;;;5.22;;
59109;SDS011;44895;47.438;18.978;2023-06-26T06:21:21;9.60;;;5.68;;
59109;SDS011;44895;47.438;18.978;2023-06-26T06:24:25;10.18;;;5.70;;
59109;SDS011;44895;47.438;18.978;2023-06-26T06:27:28;9.23;;;5.63;;
59109;SDS011;44895;47.438;18.978;2023-06-26T06:30:32;9.07;;;5.57;;
59109;SDS011;44895;47.438;18.978;2023-06-26T06:33:36;8.38;;;5.10;;
59109;SDS011;44895;47.438;18.978;2023-06-26T06:36:40;9.00;;;4.93;;
59109;SDS011;44895;47.438;18.978;2023-06-26T06:39:44;9.27;;;6.35;;
59109;SDS011;44895;47.438;18.978;2023-06-26T06:42:48;11.93;;;5.68;;
59109;SDS011;44895;47.438;18.978;2023-06-26T06:48:58;10.10;;;5.32;;
59109;SDS011;44895;47.438;18.978;2023-06-26T06:52:03;12.93;;;6.43;;
59109;SDS011;44895;47.438;18.978;2023-06-26T06:55:07;9.13;;;5.53;;
59109;SDS011;44895;47.438;18.978;2023-06-26T06:58:12;10.95;;;5.97;;
59109;SDS011;44895;47.438;18.978;2023-06-26T07:01:16;9.82;;;5.22;;
59109;SDS011;44895;47.438;18.978;2023-06-26T07:04:21;8.20;;;4.57;;
59109;SDS011;44895;47.438;18.978;2023-06-26T07:07:27;12.45;;;5.70;;
59109;SDS011;44895;47.438;18.978;2023-06-26T07:10:33;9.15;;;5.22;;
59109;SDS011;44895;47.438;18.978;2023-06-26T07:13:37;15.32;;;5.15;;
59109;SDS011;44895;47.438;18.978;2023-06-26T07:16:41;10.07;;;5.22;;
59109;SDS011;44895;47.438;18.978;2023-06-26T07:19:45;9.77;;;5.78;;
59109;SDS011;44895;47.438;18.978;2023-06-26T07:22:50;9.45;;;5.53;;
59109;SDS011;44895;47.438;18.978;2023-06-26T07:25:55;10.98;;;5.53;;
59109;SDS011;44895;47.438;18.978;2023-06-26T07:28:59;10.05;;;5.20;;
59109;SDS011;44895;47.438;18.978;2023-06-26T07:32:03;10.95;;;5.13;;
59109;SDS011;44895;47.438;18.978;2023-06-26T07:35:08;10.60;;;5.72;;
59109;SDS011;44895;47.438;18.978;2023-06-26T07:38:12;8.48;;;5.03;;
59109;SDS011;44895;47.438;18.978;2023-06-26T07:41:17;11.00;;;5.40;;
59109;SDS011;44895;47.438;18.978;2023-06-26T07:44:21;10.32;;;6.18;;
59109;SDS011;44895;47.438;18.978;2023-06-26T07:47:25;13.90;;;5.53;;
59109;SDS011;44895;47.438;18.978;2023-06-26T07:50:30;9.10;;;5.20;;
59109;SDS011;44895;47.438;18.978;2023-06-26T07:53:33;11.05;;;6.28;;
59109;SDS011;44895;47.438;18.978;2023-06-26T07:56:52;10.70;;;5.43;;
59109;SDS011;44895;47.438;18.978;2023-06-26T08:00:00;9.18;;;5.43;;
59109;SDS011;44895;47.438;18.978;2023-06-26T08:03:04;11.48;;;5.03;;
59109;SDS011;44895;47.438;18.978;2023-06-26T08:06:08;10.18;;;5.40;;
59109;SDS011;44895;47.438;18.978;2023-06-26T08:09:12;13.15;;;6.28;;
59109;SDS011;44895;47.438;18.978;2023-06-26T08:12:16;9.98;;;5.75;;
59109;SDS011;44895;47.438;18.978;2023-06-26T08:15:20;14.15;;;5.00;;
59109;SDS011;44895;47.438;18.978;2023-06-26T08:18:24;11.60;;;6.18;;
59109;SDS011;44895;47.438;18.978;2023-06-26T08:21:29;10.85;;;5.97;;
59109;SDS011;44895;47.438;18.978;2023-06-26T08:24:32;7.85;;;4.70;;
59109;SDS011;44895;47.438;18.978;2023-06-26T08:27:36;11.00;;;5.80;;
59109;SDS011;44895;47.438;18.978;2023-06-26T08:30:40;8.75;;;5.78;;
59109;SDS011;44895;47.438;18.978;2023-06-26T08:33:44;10.82;;;5.97;;
59109;SDS011;44895;47.438;18.978;2023-06-26T08:36:48;10.05;;;6.40;;
59109;SDS011;44895;47.438;18.978;2023-06-26T08:39:52;11.88;;;6.03;;
59109;SDS011;44895;47.438;18.978;2023-06-26T08:42:56;10.43;;;5.63;;
59109;SDS011;44895;47.438;18.978;2023-06-26T08:46:00;17.65;;;5.50;;
59109;SDS011;44895;47.438;18.978;2023-06-26T08:49:05;17.02;;;6.07;;
59109;SDS011;44895;47.438;18.978;2023-06-26T08:52:20;10.43;;;6.18;;
59109;SDS011;44895;47.438;18.978;2023-06-26T08:55:27;10.73;;;5.95;;
59109;SDS011;44895;47.438;18.978;2023-06-26T08:58:32;8.93;;;5.60;;
59109;SDS011;44895;47.438;18.978;2023-06-26T09:01:38;12.02;;;6.40;;
59109;SDS011;44895;47.438;18.978;2023-06-26T09:04:44;8.18;;;5.22;;
59109;SDS011;44895;47.438;18.978;2023-06-26T09:07:48;9.38;;;5.35;;
59109;SDS011;44895;47.438;18.978;2023-06-26T09:10:52;11.75;;;6.70;;
59109;SDS011;44895;47.438;18.978;2023-06-26T09:13:56;7.90;;;5.40;;
59109;SDS011;44895;47.438;18.978;2023-06-26T09:17:00;13.32;;;6.47;;
59109;SDS011;44895;47.438;18.978;2023-06-26T09:20:05;9.40;;;5.05;;
59109;SDS011;44895;47.438;18.978;2023-06-26T09:23:11;9.33;;;5.70;;
59109;SDS011;44895;47.438;18.978;2023-06-26T09:26:16;10.65;;;6.45;;
59109;SDS011;44895;47.438;18.978;2023-06-26T09:29:20;10.60;;;6.15;;
59109;SDS011;44895;47.438;18.978;2023-06-26T09:32:24;12.00;;;6.80;;
59109;SDS011;44895;47.438;18.978;2023-06-26T09:35:29;9.88;;;6.40;;
59109;SDS011;44895;47.438;18.978;2023-06-26T09:38:34;9.88;;;5.80;;
59109;SDS011;44895;47.438;18.978;2023-06-26T09:41:40;9.65;;;6.10;;
59109;SDS011;44895;47.438;18.978;2023-06-26T09:44:45;9.25;;;6.10;;
59109;SDS011;44895;47.438;18.978;2023-06-26T09:47:50;11.65;;;6.82;;
59109;SDS011;44895;47.438;18.978;2023-06-26T09:50:55;12.25;;;7.47;;
59109;SDS011;44895;47.438;18.978;2023-06-26T09:53:59;10.02;;;5.93;;
59109;SDS011;44895;47.438;18.978;2023-06-26T09:57:11;11.52;;;6.18;;
59109;SDS011;44895;47.438;18.978;2023-06-26T10:00:19;10.52;;;6.78;;
59109;SDS011;44895;47.438;18.978;2023-06-26T10:03:24;9.05;;;5.63;;
59109;SDS011;44895;47.438;18.978;2023-06-26T10:06:30;8.40;;;5.38;;
59109;SDS011;44895;47.438;18.978;2023-06-26T10:09:37;10.07;;;5.85;;
59109;SDS011;44895;47.438;18.978;2023-06-26T10:12:47;9.05;;;5.53;;
59109;SDS011;44895;47.438;18.978;2023-06-26T10:15:53;10.13;;;5.78;;
59109;SDS011;44895;47.438;18.978;2023-06-26T10:19:00;10.40;;;7.40;;
59109;SDS011;44895;47.438;18.978;2023-06-26T10:22:08;10.18;;;5.78;;
59109;SDS011;44895;47.438;18.978;2023-06-26T10:25:18;8.55;;;5.70;;
59109;SDS011;44895;47.438;18.978;2023-06-26T10:28:24;10.10;;;6.07;;
59109;SDS011;44895;47.438;18.978;2023-06-26T10:31:32;9.18;;;5.38;;
59109;SDS011;44895;47.438;18.978;2023-06-26T10:34:38;9.32;;;5.82;;
59109;SDS011;44895;47.438;18.978;2023-06-26T10:37:47;9.63;;;5.35;;
59109;SDS011;44895;47.438;18.978;2023-06-26T10:40:53;8.35;;;5.32;;
59109;SDS011;44895;47.438;18.978;2023-06-26T10:47:30;9.07;;;5.05;;
59109;SDS011;44895;47.438;18.978;2023-06-26T10:50:36;11.02;;;6.13;;
59109;SDS011;44895;47.438;18.978;2023-06-26T10:53:40;9.93;;;5.47;;
59109;SDS011;44895;47.438;18.978;2023-06-26T10:56:49;8.85;;;5.25;;
59109;SDS011;44895;47.438;18.978;2023-06-26T11:00:13;8.25;;;5.20;;
59109;SDS011;44895;47.438;18.978;2023-06-26T11:03:24;9.88;;;5.80;;
59109;SDS011;44895;47.438;18.978;2023-06-26T11:06:34;8.98;;;5.05;;
59109;SDS011;44895;47.438;18.978;2023-06-26T11:09:53;7.95;;;4.88;;
59109;SDS011;44895;47.438;18.978;2023-06-26T11:13:04;7.95;;;5.38;;
59109;SDS011;44895;47.438;18.978;2023-06-26T11:16:09;8.73;;;4.68;;
59109;SDS011;44895;47.438;18.978;2023-06-26T11:19:18;9.48;;;4.25;;
59109;SDS011;44895;47.438;18.978;2023-06-26T11:22:23;9.05;;;5.53;;
59109;SDS011;44895;47.438;18.978;2023-06-26T11:25:28;8.10;;;5.05;;
59109;SDS011;44895;47.438;18.978;2023-06-26T11:28:34;8.88;;;4.97;;
59109;SDS011;44895;47.438;18.978;2023-06-26T11:31:39;8.27;;;5.55;;
59109;SDS011;44895;47.438;18.978;2023-06-26T11:34:44;12.57;;;5.10;;
59109;SDS011;44895;47.438;18.978;2023-06-26T11:37:54;8.30;;;5.38;;
59109;SDS011;44895;47.438;18.978;2023-06-26T11:41:00;9.00;;;5.47;;
59109;SDS011;44895;47.438;18.978;2023-06-26T11:44:05;8.15;;;5.25;;
59109;SDS011;44895;47.438;18.978;2023-06-26T11:47:14;8.20;;;5.00;;
59109;SDS011;44895;47.438;18.978;2023-06-26T11:50:18;9.30;;;5.43;;
59109;SDS011;44895;47.438;18.978;2023-06-26T11:53:22;8.90;;;4.90;;
59109;SDS011;44895;47.438;18.978;2023-06-26T11:56:26;8.88;;;4.80;;
59109;SDS011;44895;47.438;18.978;2023-06-26T12:02:42;7.57;;;3.85;;
59109;SDS011;44895;47.438;18.978;2023-06-26T12:05:47;7.80;;;4.22;;
59109;SDS011;44895;47.438;18.978;2023-06-26T12:08:53;9.15;;;5.20;;
59109;SDS011;44895;47.438;18.978;2023-06-26T12:11:58;8.00;;;4.65;;
59109;SDS011;44895;47.438;18.978;2023-06-26T12:15:03;9.07;;;5.18;;
59109;SDS011;44895;47.438;18.978;2023-06-26T12:18:09;8.00;;;4.95;;
59109;SDS011;44895;47.438;18.978;2023-06-26T12:24:43;5.85;;;3.58;;
59109;SDS011;44895;47.438;18.978;2023-06-26T12:27:49;9.15;;;5.25;;
59109;SDS011;44895;47.438;18.978;2023-06-26T12:31:12;7.65;;;4.15;;
59109;SDS011;44895;47.438;18.978;2023-06-26T12:34:21;7.80;;;4.22;;
59109;SDS011;44895;47.438;18.978;2023-06-26T12:37:36;6.68;;;3.90;;
59109;SDS011;44895;47.438;18.978;2023-06-26T12:40:44;10.85;;;5.20;;
59109;SDS011;44895;47.438;18.978;2023-06-26T12:43:55;12.07;;;4.72;;
59109;SDS011;44895;47.438;18.978;2023-06-26T12:47:00;8.25;;;3.63;;
59109;SDS011;44895;47.438;18.978;2023-06-26T12:50:05;7.30;;;4.50;;
59109;SDS011;44895;47.438;18.978;2023-06-26T12:53:09;7.45;;;4.13;;
59109;SDS011;44895;47.438;18.978;2023-06-26T12:56:12;7.57;;;4.32;;
59109;SDS011;44895;47.438;18.978;2023-06-26T12:59:16;8.15;;;4.30;;
59109;SDS011;44895;47.438;18.978;2023-06-26T13:02:20;7.68;;;3.83;;
59109;SDS011;44895;47.438;18.978;2023-06-26T13:05:24;9.65;;;4.45;;
59109;SDS011;44895;47.438;18.978;2023-06-26T13:08:27;8.82;;;4.40;;
59109;SDS011;44895;47.438;18.978;2023-06-26T13:11:32;7.80;;;4.20;;
59109;SDS011;44895;47.438;18.978;2023-06-26T13:14:37;8.82;;;5.05;;
59109;SDS011;44895;47.438;18.978;2023-06-26T13:17:41;7.45;;;4.15;;
59109;SDS011;44895;47.438;18.978;2023-06-26T13:20:46;8.63;;;4.55;;
59109;SDS011;44895;47.438;18.978;2023-06-26T13:23:50;7.13;;;4.32;;
59109;SDS011;44895;47.438;18.978;2023-06-26T13:26:54;7.93;;;4.35;;
59109;SDS011;44895;47.438;18.978;2023-06-26T13:29:58;8.05;;;4.22;;
59109;SDS011;44895;47.438;18.978;2023-06-26T13:33:02;7.53;;;4.45;;
59109;SDS011;44895;47.438;18.978;2023-06-26T13:36:06;8.73;;;4.20;;
59109;SDS011;44895;47.438;18.978;2023-06-26T13:39:10;8.05;;;4.30;;
59109;SDS011;44895;47.438;18.978;2023-06-26T13:42:15;8.40;;;4.30;;
59109;SDS011;44895;47.438;18.978;2023-06-26T13:45:20;8.88;;;3.92;;
59109;SDS011;44895;47.438;18.978;2023-06-26T13:48:24;8.32;;;3.75;;
59109;SDS011;44895;47.438;18.978;2023-06-26T13:51:27;13.45;;;4.00;;
59109;SDS011;44895;47.438;18.978;2023-06-26T13:54:31;8.60;;;4.07;;
59109;SDS011;44895;47.438;18.978;2023-06-26T13:57:35;8.43;;;4.30;;
59109;SDS011;44895;47.438;18.978;2023-06-26T14:00:45;8.18;;;4.38;;
59109;SDS011;44895;47.438;18.978;2023-06-26T14:03:49;10.32;;;4.05;;
59109;SDS011;44895;47.438;18.978;2023-06-26T14:06:53;9.13;;;3.83;;
59109;SDS011;44895;47.438;18.978;2023-06-26T14:09:57;9.15;;;4.20;;
59109;SDS011;44895;47.438;18.978;2023-06-26T14:13:02;8.20;;;3.92;;
59109;SDS011;44895;47.438;18.978;2023-06-26T14:16:07;7.10;;;3.53;;
59109;SDS011;44895;47.438;18.978;2023-06-26T14:19:11;8.30;;;4.25;;
59109;SDS011;44895;47.438;18.978;2023-06-26T14:22:17;8.85;;;4.30;;
59109;SDS011;44895;47.438;18.978;2023-06-26T14:25:21;9.95;;;4.95;;
59109;SDS011;44895;47.438;18.978;2023-06-26T14:28:25;7.68;;;4.10;;
59109;SDS011;44895;47.438;18.978;2023-06-26T14:31:30;8.35;;;4.18;;
59109;SDS011;44895;47.438;18.978;2023-06-26T14:34:34;10.95;;;4.72;;
59109;SDS011;44895;47.438;18.978;2023-06-26T14:37:38;8.02;;;4.50;;
59109;SDS011;44895;47.438;18.978;2023-06-26T14:40:42;9.35;;;4.30;;
59109;SDS011;44895;47.438;18.978;2023-06-26T14:43:46;9.25;;;3.90;;
59109;SDS011;44895;47.438;18.978;2023-06-26T14:46:50;9.52;;;4.57;;
59109;SDS011;44895;47.438;18.978;2023-06-26T14:49:54;10.65;;;4.50;;
59109;SDS011;44895;47.438;18.978;2023-06-26T14:52:58;7.18;;;4.03;;
59109;SDS011;44895;47.438;18.978;2023-06-26T14:56:02;8.02;;;4.30;;
59109;SDS011;44895;47.438;18.978;2023-06-26T14:59:06;8.60;;;4.30;;
59109;SDS011;44895;47.438;18.978;2023-06-26T15:02:11;7.80;;;3.88;;
59109;SDS011;44895;47.438;18.978;2023-06-26T15:05:15;7.25;;;3.50;;
59109;SDS011;44895;47.438;18.978;2023-06-26T15:08:19;6.47;;;3.65;;
59109;SDS011;44895;47.438;18.978;2023-06-26T15:11:23;11.55;;;3.88;;
59109;SDS011;44895;47.438;18.978;2023-06-26T15:14:27;8.77;;;3.65;;
59109;SDS011;44895;47.438;18.978;2023-06-26T15:17:31;7.13;;;3.88;;
59109;SDS011;44895;47.438;18.978;2023-06-26T15:20:35;6.95;;;3.28;;
59109;SDS011;44895;47.438;18.978;2023-06-26T15:23:38;7.22;;;4.22;;
59109;SDS011;44895;47.438;18.978;2023-06-26T15:26:42;6.85;;;3.70;;
59109;SDS011;44895;47.438;18.978;2023-06-26T15:29:47;6.90;;;3.80;;
59109;SDS011;44895;47.438;18.978;2023-06-26T15:32:51;6.78;;;3.50;;
59109;SDS011;44895;47.438;18.978;2023-06-26T15:35:55;6.22;;;3.10;;
59109;SDS011;44895;47.438;18.978;2023-06-26T15:38:59;6.95;;;3.60;;
59109;SDS011;44895;47.438;18.978;2023-06-26T15:42:03;6.47;;;3.38;;
59109;SDS011;44895;47.438;18.978;2023-06-26T15:45:08;6.97;;;3.60;;
59109;SDS011;44895;47.438;18.978;2023-06-26T15:48:12;7.22;;;4.03;;
59109;SDS011;44895;47.438;18.978;2023-06-26T15:51:16;6.10;;;3.03;;
59109;SDS011;44895;47.438;18.978;2023-06-26T15:54:20;6.93;;;3.85;;
59109;SDS011;44895;47.438;18.978;2023-06-26T15:57:24;7.20;;;3.95;;
59109;SDS011;44895;47.438;18.978;2023-06-26T16:00:28;6.97;;;3.50;;
59109;SDS011;44895;47.438;18.978;2023-06-26T16:03:32;10.07;;;4.00;;
59109;SDS011;44895;47.438;18.978;2023-06-26T16:06:36;11.10;;;4.72;;
59109;SDS011;44895;47.438;18.978;2023-06-26T16:09:40;9.20;;;3.72;;
59109;SDS011;44895;47.438;18.978;2023-06-26T16:12:46;6.47;;;3.90;;
59109;SDS011;44895;47.438;18.978;2023-06-26T16:15:50;7.13;;;4.05;;
59109;SDS011;44895;47.438;18.978;2023-06-26T16:18:53;8.52;;;3.95;;
59109;SDS011;44895;47.438;18.978;2023-06-26T16:21:57;10.13;;;3.95;;
59109;SDS011;44895;47.438;18.978;2023-06-26T16:25:01;8.38;;;4.15;;
59109;SDS011;44895;47.438;18.978;2023-06-26T16:28:06;8.90;;;3.97;;
59109;SDS011;44895;47.438;18.978;2023-06-26T16:31:09;7.88;;;4.20;;
59109;SDS011;44895;47.438;18.978;2023-06-26T16:34:13;7.55;;;3.53;;
59109;SDS011;44895;47.438;18.978;2023-06-26T16:37:17;8.32;;;3.65;;
59109;SDS011;44895;47.438;18.978;2023-06-26T16:40:21;7.55;;;4.28;;
59109;SDS011;44895;47.438;18.978;2023-06-26T16:43:25;6.65;;;3.22;;
59109;SDS011;44895;47.438;18.978;2023-06-26T16:46:29;7.60;;;3.90;;
59109;SDS011;44895;47.438;18.978;2023-06-26T16:49:32;6.65;;;3.65;;
59109;SDS011;44895;47.438;18.978;2023-06-26T16:52:36;7.25;;;3.63;;
59109;SDS011;44895;47.438;18.978;2023-06-26T16:55:40;8.48;;;3.88;;
59109;SDS011;44895;47.438;18.978;2023-06-26T16:58:45;7.75;;;4.15;;
59109;SDS011;44895;47.438;18.978;2023-06-26T17:01:49;10.55;;;3.65;;
59109;SDS011;44895;47.438;18.978;2023-06-26T17:04:53;7.80;;;3.65;;
59109;SDS011;44895;47.438;18.978;2023-06-26T17:07:57;9.77;;;4.68;;
59109;SDS011;44895;47.438;18.978;2023-06-26T17:11:01;7.93;;;3.92;;
59109;SDS011;44895;47.438;18.978;2023-06-26T17:14:05;8.10;;;3.97;;
59109;SDS011;44895;47.438;18.978;2023-06-26T17:17:09;7.18;;;4.03;;
59109;SDS011;44895;47.438;18.978;2023-06-26T17:20:13;7.35;;;3.67;;
59109;SDS011;44895;47.438;18.978;2023-06-26T17:23:17;7.68;;;4.38;;
59109;SDS011;44895;47.438;18.978;2023-06-26T17:26:21;8.07;;;4.32;;
59109;SDS011;44895;47.438;18.978;2023-06-26T17:29:25;11.82;;;4.07;;
59109;SDS011;44895;47.438;18.978;2023-06-26T17:32:29;9.15;;;3.95;;
59109;SDS011;44895;47.438;18.978;2023-06-26T17:35:33;9.32;;;4.22;;
59109;SDS011;44895;47.438;18.978;2023-06-26T17:38:38;10.05;;;4.55;;
59109;SDS011;44895;47.438;18.978;2023-06-26T17:41:42;7.45;;;4.35;;
59109;SDS011;44895;47.438;18.978;2023-06-26T17:44:47;7.28;;;4.15;;
59109;SDS011;44895;47.438;18.978;2023-06-26T17:47:51;7.70;;;4.47;;
59109;SDS011;44895;47.438;18.978;2023-06-26T17:50:55;11.48;;;4.25;;
59109;SDS011;44895;47.438;18.978;2023-06-26T17:54:00;8.43;;;4.05;;
59109;SDS011;44895;47.438;18.978;2023-06-26T17:57:04;8.52;;;4.20;;
59109;SDS011;44895;47.438;18.978;2023-06-26T18:00:09;8.32;;;4.03;;
59109;SDS011;44895;47.438;18.978;2023-06-26T18:03:17;9.75;;;4.00;;
59109;SDS011;44895;47.438;18.978;2023-06-26T18:06:21;9.15;;;4.43;;
59109;SDS011;44895;47.438;18.978;2023-06-26T18:09:27;8.75;;;4.57;;
59109;SDS011;44895;47.438;18.978;2023-06-26T18:12:31;10.73;;;5.00;;
59109;SDS011;44895;47.438;18.978;2023-06-26T18:15:35;8.30;;;4.57;;
59109;SDS011;44895;47.438;18.978;2023-06-26T18:18:39;9.07;;;4.80;;
59109;SDS011;44895;47.438;18.978;2023-06-26T18:21:44;10.38;;;4.50;;
59109;SDS011;44895;47.438;18.978;2023-06-26T18:24:48;8.88;;;3.88;;
59109;SDS011;44895;47.438;18.978;2023-06-26T18:27:52;14.15;;;4.90;;
59109;SDS011;44895;47.438;18.978;2023-06-26T18:30:56;8.55;;;4.68;;